createdAt,value
2022-10-17T00:01:58.385Z,98923.59
2022-10-17T00:07:00.229Z,98920.47
2022-10-17T00:12:02.909Z,98924.78
2022-10-17T00:17:05.143Z,98926.75
2022-10-17T00:22:07.023Z,98914.94
2022-10-17T00:27:08.845Z,98907.09
2022-10-17T00:32:10.718Z,98918.47
2022-10-17T00:37:12.627Z,98916.50
2022-10-17T00:42:14.469Z,98921.59
2022-10-17T00:47:21.133Z,98907.84
2022-10-17T00:52:27.021Z,98909.41
2022-10-17T00:57:31.902Z,98910.13
2022-10-17T01:02:33.910Z,98919.47
2022-10-17T01:07:37.387Z,98930.81
2022-10-17T01:13:07.291Z,98931.91
2022-10-17T01:18:32.635Z,98935.34
2022-10-17T01:24:00.268Z,98922.38
2022-10-17T01:29:10.923Z,98920.00
2022-10-17T01:34:36.113Z,98916.59
2022-10-17T01:39:52.089Z,98920.06
2022-10-17T01:45:12.899Z,98920.81
2022-10-17T01:50:24.469Z,98921.16
2022-10-17T01:55:33.026Z,98928.53
2022-10-17T02:00:37.884Z,98924.97
2022-10-17T02:05:42.587Z,98917.47
2022-10-17T02:10:50.685Z,98914.28
2022-10-17T02:16:17.834Z,98901.72
2022-10-17T02:21:48.631Z,98901.75
2022-10-17T02:27:04.270Z,98892.38
2022-10-17T02:32:11.825Z,98894.38
2022-10-17T02:37:17.628Z,98897.13
2022-10-17T02:42:21.820Z,98901.41
2022-10-17T02:47:39.926Z,98897.91
2022-10-17T02:53:10.936Z,98901.78
2022-10-17T02:58:20.793Z,98906.00
2022-10-17T03:03:26.916Z,98915.66
2022-10-17T03:08:29.343Z,98919.50
2022-10-17T03:13:33.009Z,98916.31
2022-10-17T03:18:36.977Z,98922.47
2022-10-17T03:23:39.642Z,98916.13
2022-10-17T03:28:42.460Z,98918.03
2022-10-17T03:33:44.396Z,98925.53
2022-10-17T03:38:46.569Z,98933.47
2022-10-17T03:43:48.525Z,98931.91
2022-10-17T03:48:50.590Z,98939.69
2022-10-17T03:53:52.654Z,98933.47
2022-10-17T03:58:55.791Z,98935.03
2022-10-17T04:03:58.106Z,98946.81
2022-10-17T04:09:05.431Z,98933.97
2022-10-17T04:14:17.476Z,98946.09
2022-10-17T04:19:19.437Z,98949.97
2022-10-17T04:24:22.662Z,98960.59
2022-10-17T04:29:30.592Z,98959.81
2022-10-17T04:34:52.658Z,98971.22
2022-10-17T04:39:57.116Z,98957.91
2022-10-17T04:44:59.246Z,98975.88
2022-10-17T04:50:02.291Z,98968.81
2022-10-17T04:55:07.442Z,98969.97
2022-10-17T05:00:10.750Z,98974.25
2022-10-17T05:05:26.864Z,98972.59
2022-10-17T05:10:30.159Z,98982.72
2022-10-17T05:15:33.771Z,98982.69
2022-10-17T05:20:36.816Z,98977.97
2022-10-17T05:25:38.802Z,98995.56
2022-10-17T05:30:40.723Z,98994.41
2022-10-17T05:35:44.063Z,98994.41
2022-10-17T05:40:46.031Z,99003.34
2022-10-17T05:45:47.947Z,99015.88
2022-10-17T05:51:00.140Z,99012.44
2022-10-17T05:56:04.341Z,99015.97
2022-10-17T06:01:10.659Z,99030.47
2022-10-17T06:06:15.898Z,99031.34
2022-10-17T06:11:19.540Z,99029.50
2022-10-17T06:16:21.658Z,99027.63
2022-10-17T06:21:26.059Z,99024.19
2022-10-17T06:26:35.070Z,99036.41
2022-10-17T06:31:37.657Z,99042.72
2022-10-17T06:36:40.234Z,99050.66
2022-10-17T06:41:44.670Z,99059.34
2022-10-17T06:46:46.769Z,99054.41
2022-10-17T06:51:51.919Z,99059.25
2022-10-17T06:56:58.238Z,99058.22
2022-10-17T07:02:18.817Z,99074.09
2022-10-17T07:07:20.856Z,99076.63
2022-10-17T07:12:23.427Z,99083.38
2022-10-17T07:17:25.459Z,99078.41
2022-10-17T07:22:28.010Z,99075.66
2022-10-17T07:27:33.088Z,99085.88
2022-10-17T07:32:35.010Z,99084.28
2022-10-17T07:37:38.605Z,99085.47
2022-10-17T07:42:40.690Z,99092.53
2022-10-17T07:47:43.124Z,99088.53
2022-10-17T07:52:46.301Z,99090.47
2022-10-17T07:57:48.074Z,99092.31
2022-10-17T08:02:49.936Z,99091.41
2022-10-17T08:07:51.864Z,99095.19
2022-10-17T08:12:56.247Z,99087.50
2022-10-17T08:17:58.747Z,99084.16
2022-10-17T08:23:00.468Z,99093.78
2022-10-17T08:28:02.276Z,99099.16
2022-10-17T08:33:04.175Z,99098.22
2022-10-17T08:38:09.957Z,99105.94
2022-10-17T08:43:35.377Z,99082.78
2022-10-17T08:48:45.614Z,99089.78
2022-10-17T08:54:08.528Z,99089.59
2022-10-17T08:59:17.057Z,99090.03
2022-10-17T09:04:34.104Z,99089.72
2022-10-17T09:10:01.939Z,99069.72
2022-10-17T09:15:35.657Z,99083.50
2022-10-17T09:20:45.051Z,99085.31
2022-10-17T09:25:52.631Z,99094.41
2022-10-17T09:31:25.077Z,99089.22
2022-10-17T09:36:34.611Z,99087.38
2022-10-17T09:41:46.116Z,99087.22
2022-10-17T09:47:10.159Z,99096.59
2022-10-17T09:52:28.877Z,99101.28
2022-10-17T09:57:58.306Z,99102.16
2022-10-17T10:03:27.347Z,99104.81
2022-10-17T10:08:35.576Z,99107.84
2022-10-17T10:13:37.457Z,99103.66
2022-10-17T10:18:39.413Z,99102.84
2022-10-17T10:23:43.982Z,99098.72
2022-10-17T10:28:54.685Z,99104.06
2022-10-17T10:33:57.727Z,99103.88
2022-10-17T10:39:02.568Z,99105.81
2022-10-17T10:44:06.612Z,99115.72
2022-10-17T10:49:30.033Z,99088.47
2022-10-17T10:54:41.653Z,99086.09
2022-10-17T10:59:49.013Z,99087.13
2022-10-17T11:05:34.842Z,99089.91
2022-10-17T11:11:04.667Z,99083.75
2022-10-17T11:16:15.312Z,99082.66
2022-10-17T11:21:30.437Z,99081.81
2022-10-17T11:26:38.614Z,99076.50
2022-10-17T11:31:47.492Z,99076.50
2022-10-17T11:36:53.602Z,99071.59
2022-10-17T11:42:04.369Z,99063.59
2022-10-17T11:47:45.685Z,99061.44
2022-10-17T11:53:10.585Z,99052.88
2022-10-17T11:58:30.902Z,99035.72
2022-10-17T12:03:51.345Z,99041.03
2022-10-17T12:09:26.636Z,99035.13
2022-10-17T12:14:38.939Z,99029.09
2022-10-17T12:19:40.767Z,99029.31
2022-10-17T12:24:45.501Z,99003.44
2022-10-17T12:29:48.449Z,99024.97
2022-10-17T12:34:55.048Z,99008.94
2022-10-17T12:39:56.872Z,99007.97
2022-10-17T12:44:58.773Z,98995.91
2022-10-17T12:50:00.572Z,98992.97
2022-10-17T12:55:12.490Z,98969.22
2022-10-17T13:00:23.378Z,98981.31
2022-10-17T13:05:30.780Z,98981.47
2022-10-17T13:10:39.651Z,98970.84
2022-10-17T13:15:52.054Z,98983.69
2022-10-17T13:21:07.659Z,98983.94
2022-10-17T13:26:20.599Z,98984.13
2022-10-17T13:31:35.368Z,98977.13
2022-10-17T13:36:37.267Z,98982.63
2022-10-17T13:41:40.593Z,98971.19
2022-10-17T13:46:44.011Z,98973.66
2022-10-17T13:51:48.787Z,98973.53
2022-10-17T13:56:57.581Z,98968.34
2022-10-17T14:02:01.946Z,98987.56
2022-10-17T14:07:03.781Z,98990.50
2022-10-17T14:12:16.627Z,98981.00
2022-10-17T14:17:25.379Z,98988.03
2022-10-17T14:22:29.043Z,98992.69
2022-10-17T14:27:52.867Z,99001.75
2022-10-17T14:33:01.377Z,98996.31
2022-10-17T14:38:06.063Z,98993.25
2022-10-17T14:43:20.864Z,98998.63
2022-10-17T14:48:25.224Z,98993.34
2022-10-17T14:53:28.522Z,99000.47
2022-10-17T14:58:34.585Z,99009.38
2022-10-17T15:03:36.466Z,99022.19
2022-10-17T15:08:38.352Z,99027.41
2022-10-17T15:13:45.389Z,99023.94
2022-10-17T15:18:48.568Z,99037.44
2022-10-17T15:23:50.963Z,99036.69
2022-10-17T15:28:53.913Z,99046.78
2022-10-17T15:33:55.824Z,99062.97
2022-10-17T15:38:59.928Z,99043.09
2022-10-17T15:44:01.760Z,99053.16
2022-10-17T15:49:10.085Z,99049.09
2022-10-17T15:59:18.020Z,99043.81
2022-10-17T16:04:19.922Z,99054.53
2022-10-17T16:09:21.837Z,99059.97
2022-10-17T16:14:23.683Z,99054.69
2022-10-17T16:19:30.138Z,99042.59
2022-10-17T16:24:32.476Z,99057.25
2022-10-17T16:29:34.368Z,99071.91
2022-10-17T16:34:36.156Z,99078.63
2022-10-17T16:39:37.963Z,99071.97
2022-10-17T16:44:39.809Z,99071.34
2022-10-17T16:49:44.450Z,99080.13
2022-10-17T16:54:47.299Z,99079.47
2022-10-17T16:59:49.103Z,99072.81
2022-10-17T17:04:50.977Z,99076.50
2022-10-17T17:09:56.309Z,99072.25
2022-10-17T17:14:58.104Z,99081.38
2022-10-17T17:19:59.976Z,99081.81
2022-10-17T17:25:01.774Z,99091.75
2022-10-17T17:30:03.771Z,99088.28
2022-10-17T17:35:05.904Z,99085.22
2022-10-17T17:40:08.493Z,99086.94
2022-10-17T17:45:10.819Z,99094.19
2022-10-17T17:50:12.764Z,99100.16
2022-10-17T17:55:14.750Z,99101.03
2022-10-17T18:00:16.803Z,99105.78
2022-10-17T18:05:18.640Z,99105.84
2022-10-17T18:10:20.577Z,99103.50
2022-10-17T18:15:22.423Z,99096.81
2022-10-17T18:20:24.597Z,99098.81
2022-10-17T18:25:26.791Z,99095.25
2022-10-17T18:30:31.029Z,99101.16
2022-10-17T18:35:36.166Z,99111.41
2022-10-17T18:40:38.061Z,99109.06
2022-10-17T18:45:39.899Z,99098.81
2022-10-17T18:50:41.962Z,99099.63
2022-10-17T18:55:43.866Z,99098.44
2022-10-17T19:00:46.369Z,99098.84
2022-10-17T19:05:48.204Z,99097.66
2022-10-17T19:10:50.882Z,99097.66
2022-10-17T19:15:52.685Z,99100.03
2022-10-17T19:20:54.722Z,99095.66
2022-10-17T19:26:11.602Z,99092.56
2022-10-17T19:31:16.987Z,99093.72
2022-10-17T19:36:22.045Z,99098.06
2022-10-17T19:41:24.444Z,99109.06
2022-10-17T19:46:28.369Z,99095.72
2022-10-17T19:51:31.050Z,99107.13
2022-10-17T19:56:38.275Z,99119.31
2022-10-17T20:01:40.716Z,99123.19
2022-10-17T20:06:42.806Z,99126.34
2022-10-17T20:11:44.847Z,99127.53
2022-10-17T20:16:52.226Z,99131.06
2022-10-17T20:21:54.401Z,99140.53
2022-10-17T20:26:56.370Z,99148.38
2022-10-17T20:31:58.640Z,99160.91
2022-10-17T20:37:01.653Z,99157.75
2022-10-17T20:42:03.782Z,99153.78
2022-10-17T20:47:11.965Z,99153.72
2022-10-17T20:52:18.211Z,99165.53
2022-10-17T20:57:20.100Z,99169.47
2022-10-17T21:02:21.885Z,99163.16
2022-10-17T21:07:25.275Z,99163.97
2022-10-17T21:12:36.830Z,99160.84
2022-10-17T21:17:45.189Z,99149.88
2022-10-17T21:22:46.984Z,99157.31
2022-10-17T21:27:52.641Z,99145.09
2022-10-17T21:32:55.856Z,99145.06
2022-10-17T21:37:57.789Z,99148.16
2022-10-17T21:42:59.582Z,99140.28
2022-10-17T21:48:12.648Z,99147.28
2022-10-17T21:53:14.829Z,99148.03
2022-10-17T21:58:16.610Z,99142.50
2022-10-17T22:03:18.425Z,99144.88
2022-10-17T22:08:20.317Z,99146.06
2022-10-17T22:13:22.107Z,99154.69
2022-10-17T22:18:23.949Z,99159.38
2022-10-17T22:23:26.082Z,99166.06
2022-10-17T22:28:28.199Z,99165.63
2022-10-17T22:33:32.890Z,99159.72
2022-10-17T22:38:34.882Z,99167.59
2022-10-17T22:43:36.737Z,99178.16
2022-10-17T22:48:38.798Z,99165.91
2022-10-17T22:53:40.618Z,99167.28
2022-10-17T22:58:42.762Z,99168.97
2022-10-17T23:03:45.148Z,99169.19
2022-10-17T23:08:47.328Z,99167.78
2022-10-17T23:13:49.163Z,99165.53
2022-10-17T23:18:50.963Z,99172.28
2022-10-17T23:23:52.839Z,99166.28
2022-10-17T23:28:54.995Z,99160.09
2022-10-17T23:33:56.832Z,99164.41
2022-10-17T23:38:58.841Z,99171.09
2022-10-17T23:44:00.652Z,99157.28
2022-10-17T23:49:02.446Z,99161.56
2022-10-17T23:54:04.858Z,99151.34
2022-10-17T23:59:06.645Z,99158.78
